Time;durP1;ratioP1;P1;durP2;ratioP2;P2;SDS_P1;SDS_P2;PMS_P1;PMS_P2;Temp;Humidity;BMP_temperature;BMP_pressure;BME280_temperature;BME280_humidity;BME280_pressure;Samples;Min_cycle;Max_cycle;Signal;HPM_P1;HPM_P2
2023/05/27 00:01:47;;;;;;;;;15.67;12.00;;;;;17.70;47.43;101919.34;4995253;28;46778;-69
2023/05/27 00:04:13;;;;;;;;;12.00;11.00;;;;;17.70;47.46;101922.88;4995717;28;45491;-68
2023/05/27 00:06:38;;;;;;;;;12.00;10.67;;;;;17.68;47.48;101914.13;4989334;28;45436;-68
2023/05/27 00:09:04;;;;;;;;;11.67;9.33;;;;;17.64;47.61;101912.75;4977791;28;45548;-69
2023/05/27 00:11:29;;;;;;;;;11.67;11.33;;;;;17.31;47.32;101866.88;4990390;28;46548;-69
2023/05/27 00:13:54;;;;;;;;;13.00;9.67;;;;;17.58;47.04;101924.13;4988191;28;45468;-68
2023/05/27 00:16:20;;;;;;;;;10.33;8.67;;;;;17.53;47.24;101913.00;4985329;28;45654;-67
2023/05/27 00:18:47;;;;;;;;;15.00;13.00;;;;;17.40;47.41;101885.72;4989748;28;45290;-68
2023/05/27 00:21:13;;;;;;;;;19.33;12.67;;;;;17.58;47.35;101907.97;4995439;28;46494;-68
2023/05/27 00:23:38;;;;;;;;;16.00;11.67;;;;;17.49;47.18;101882.06;4988331;28;45514;-67
2023/05/27 00:26:04;;;;;;;;;17.33;11.33;;;;;17.45;47.00;101895.00;4979997;28;45408;-70
2023/05/27 00:28:31;;;;;;;;;15.67;12.33;;;;;17.44;47.33;101905.91;4970795;28;45711;-67
2023/05/27 00:30:57;;;;;;;;;16.00;10.67;;;;;17.39;47.46;101909.06;4989144;28;45590;-67
2023/05/27 00:33:22;;;;;;;;;12.00;11.33;;;;;17.39;47.35;101905.53;4992400;28;45611;-68
2023/05/27 00:35:48;;;;;;;;;13.67;13.33;;;;;17.36;47.51;101908.56;4985117;28;46333;-68
2023/05/27 00:38:13;;;;;;;;;18.33;11.33;;;;;17.30;47.55;101894.75;4992780;28;45218;-69
2023/05/27 00:40:40;;;;;;;;;12.00;9.33;;;;;17.17;47.49;101867.47;4970127;28;49002;-67
2023/05/27 00:43:06;;;;;;;;;11.67;8.33;;;;;17.34;47.31;101889.91;4996284;28;45467;-69
2023/05/27 00:45:31;;;;;;;;;12.67;10.33;;;;;17.27;47.35;101888.88;4994244;28;45439;-68
2023/05/27 00:47:58;;;;;;;;;10.00;10.00;;;;;17.20;47.34;101866.28;4977032;28;45380;-67
2023/05/27 00:50:25;;;;;;;;;15.67;12.00;;;;;17.38;47.61;101893.09;4984312;28;47234;-67
2023/05/27 00:52:50;;;;;;;;;15.67;11.67;;;;;17.40;47.09;101885.72;4977275;28;45434;-68
2023/05/27 00:55:16;;;;;;;;;15.00;11.00;;;;;17.36;47.00;101878.97;4976976;28;45235;-68
2023/05/27 00:57:43;;;;;;;;;13.00;10.00;;;;;17.22;47.17;101867.84;4993169;28;45575;-66
2023/05/27 01:00:09;;;;;;;;;9.33;9.33;;;;;17.32;47.33;101879.31;4995755;28;46413;-68
2023/05/27 01:02:36;;;;;;;;;8.00;8.00;;;;;17.09;47.19;101853.16;4987961;28;45584;-68
2023/05/27 01:05:01;;;;;;;;;11.33;10.00;;;;;17.08;47.53;101872.97;4984884;28;45511;-67
2023/05/27 01:07:37;;;;;;;;;15.33;12.00;;;;;17.16;47.55;101887.28;4990465;28;45460;-67
2023/05/27 01:10:15;;;;;;;;;14.00;11.33;;;;;17.12;47.39;101874.31;4985139;28;46510;-66
2023/05/27 01:12:49;;;;;;;;;11.67;10.33;;;;;17.14;47.45;101878.53;4965337;28;45406;-68
2023/05/27 01:15:14;;;;;;;;;14.33;11.33;;;;;17.03;47.77;101866.22;4967050;28;45421;-69
2023/05/27 01:17:42;;;;;;;;;14.00;10.00;;;;;17.00;47.40;101865.69;4990444;28;45407;-67
2023/05/27 01:20:13;;;;;;;;;12.00;10.00;;;;;17.10;47.55;101871.81;4986861;28;45736;-68
2023/05/27 01:22:41;;;;;;;;;11.67;10.33;;;;;17.04;47.03;101864.38;4989030;28;45349;-67
2023/05/27 01:25:07;;;;;;;;;9.33;8.33;;;;;17.10;47.01;101866.44;4976927;28;45244;-67
2023/05/27 01:27:33;;;;;;;;;13.00;9.33;;;;;17.11;46.78;101868.09;4984190;28;45334;-68
2023/05/27 01:29:59;;;;;;;;;8.33;8.33;;;;;17.01;47.50;101883.47;4984118;28;46406;-69
2023/05/27 01:32:33;;;;;;;;;10.67;7.00;;;;;16.91;47.36;101882.75;4976338;28;45235;-67
2023/05/27 01:35:23;;;;;;;;;11.33;9.33;;;;;16.85;47.38;101884.25;4966073;28;45481;-68
2023/05/27 01:37:51;;;;;;;;;8.33;7.33;;;;;16.88;47.77;101877.72;4970020;28;45578;-69
2023/05/27 01:40:18;;;;;;;;;10.00;8.00;;;;;16.81;47.36;101868.56;4982582;28;46832;-67
2023/05/27 01:42:44;;;;;;;;;10.33;8.67;;;;;16.46;47.31;101808.56;4976687;28;45470;-67
2023/05/27 01:45:10;;;;;;;;;8.33;8.33;;;;;16.85;47.10;101867.28;4990648;28;45619;-67
2023/05/27 01:47:36;;;;;;;;;13.67;9.00;;;;;16.51;47.42;101817.00;4986447;28;45504;-67
2023/05/27 01:50:02;;;;;;;;;10.00;8.33;;;;;16.84;47.22;101876.34;4982730;28;45457;-67
2023/05/27 01:52:27;;;;;;;;;11.00;9.33;;;;;16.69;47.46;101860.78;4983903;28;45452;-68
2023/05/27 01:54:53;;;;;;;;;8.33;6.00;;;;;16.69;47.42;101873.38;4987544;28;45582;-68
2023/05/27 01:57:20;;;;;;;;;8.33;8.00;;;;;16.36;47.49;101826.59;4990628;28;45515;-67
2023/05/27 01:59:45;;;;;;;;;8.33;7.00;;;;;16.59;47.73;101867.19;4981119;28;46527;-67
2023/05/27 02:02:10;;;;;;;;;11.67;10.00;;;;;16.57;47.63;101859.31;4986724;28;45417;-70
2023/05/27 02:04:36;;;;;;;;;7.00;6.00;;;;;16.52;47.42;101871.53;4987576;28;45445;-67
2023/05/27 02:07:01;;;;;;;;;9.67;8.00;;;;;16.48;47.59;101862.94;4971805;28;45509;-70
2023/05/27 02:09:26;;;;;;;;;11.00;8.67;;;;;16.37;47.60;101847.91;4998077;28;46723;-67
2023/05/27 02:11:52;;;;;;;;;9.33;8.00;;;;;16.46;47.72;101864.94;4998327;28;45377;-69
2023/05/27 02:14:18;;;;;;;;;8.33;8.33;;;;;15.75;47.66;101738.88;4994939;28;45266;-67
2023/05/27 02:16:43;;;;;;;;;11.67;7.67;;;;;16.51;47.19;101859.94;4993954;28;45226;-68
2023/05/27 02:19:09;;;;;;;;;17.33;9.00;;;;;16.48;47.57;101860.25;4996834;28;46647;-68
2023/05/27 02:21:35;;;;;;;;;8.67;8.00;;;;;16.47;47.47;101858.56;4962019;28;45315;-69
2023/05/27 02:24:01;;;;;;;;;11.33;9.00;;;;;16.10;47.51;101803.25;4979633;28;45472;-70
2023/05/27 02:26:26;;;;;;;;;12.00;10.00;;;;;16.35;47.46;101854.44;4974682;28;45402;-69
2023/05/27 02:28:52;;;;;;;;;5.67;5.67;;;;;16.28;47.50;101848.00;4999139;28;46297;-65
2023/05/27 02:31:17;;;;;;;;;13.00;9.33;;;;;16.28;47.64;101873.00;4981937;28;46871;-67
2023/05/27 02:33:43;;;;;;;;;9.33;7.67;;;;;16.03;47.70;101828.16;4986750;28;45301;-66
2023/05/27 02:36:08;;;;;;;;;9.67;9.67;;;;;15.84;47.57;101786.25;4994979;28;45450;-68
2023/05/27 02:38:33;;;;;;;;;7.00;7.00;;;;;16.24;47.48;101850.16;4986728;28;45636;-66
2023/05/27 02:40:59;;;;;;;;;7.33;6.33;;;;;15.78;47.35;101776.94;4992402;28;54059;-65
2023/05/27 02:43:24;;;;;;;;;7.67;7.33;;;;;16.20;47.19;101845.22;4989152;28;45384;-67
2023/05/27 02:45:50;;;;;;;;;8.67;7.67;;;;;16.21;47.31;101860.31;4965959;28;45593;-68
2023/05/27 02:48:15;;;;;;;;;6.33;6.33;;;;;16.07;47.23;101830.38;4975307;28;45707;-68
2023/05/27 02:50:40;;;;;;;;;7.33;6.00;;;;;15.76;47.24;101791.50;4994756;28;45376;-68
2023/05/27 02:53:06;;;;;;;;;10.67;8.67;;;;;16.06;47.28;101850.16;4978884;28;45496;-69
2023/05/27 02:55:31;;;;;;;;;7.67;7.33;;;;;16.07;47.29;101841.13;4988148;28;45554;-66
2023/05/27 02:57:56;;;;;;;;;9.33;8.33;;;;;15.98;47.03;101836.66;4996869;28;45647;-68
2023/05/27 03:00:22;;;;;;;;;7.33;7.33;;;;;16.01;47.41;101843.53;4968786;28;45534;-69
2023/05/27 03:02:47;;;;;;;;;9.67;7.33;;;;;16.04;47.39;101845.94;4973708;28;45258;-65
2023/05/27 03:05:13;;;;;;;;;10.00;8.33;;;;;16.02;46.85;101846.09;4997709;28;45451;-67
2023/05/27 03:07:40;;;;;;;;;10.33;9.00;;;;;15.56;47.09;101760.44;4987936;28;45259;-69
2023/05/27 03:10:06;;;;;;;;;13.33;7.67;;;;;16.03;47.00;101845.09;4997551;28;45517;-70
2023/05/27 03:12:31;;;;;;;;;8.00;8.00;;;;;15.97;46.99;101843.00;4988531;28;45452;-69
2023/05/27 03:14:57;;;;;;;;;7.33;6.67;;;;;16.01;46.86;101851.59;4986324;28;45559;-67
2023/05/27 03:17:22;;;;;;;;;5.67;5.00;;;;;15.87;46.65;101820.78;4984387;28;55711;-66
2023/05/27 03:19:48;;;;;;;;;7.33;4.00;;;;;15.87;47.09;101836.88;4993771;28;64421;-67
2023/05/27 03:22:13;;;;;;;;;14.00;10.00;;;;;15.77;46.76;101828.03;4983380;28;45302;-67
2023/05/27 03:24:38;;;;;;;;;6.67;5.67;;;;;15.77;46.91;101834.25;4997132;28;45626;-69
2023/05/27 03:27:05;;;;;;;;;8.00;6.67;;;;;15.74;46.85;101812.25;4989695;28;45866;-67
2023/05/27 03:29:31;;;;;;;;;6.00;6.00;;;;;15.87;46.51;101833.34;4989013;28;45603;-67
2023/05/27 03:31:56;;;;;;;;;7.33;7.33;;;;;15.84;46.44;101839.03;4996907;28;45503;-67
2023/05/27 03:34:22;;;;;;;;;11.33;7.33;;;;;15.85;46.48;101838.03;4983721;28;45396;-68
2023/05/27 03:36:49;;;;;;;;;9.00;7.67;;;;;15.44;46.65;101778.59;4985462;28;46492;-69
2023/05/27 03:39:15;;;;;;;;;8.00;8.00;;;;;15.77;46.77;101836.09;4985405;28;45366;-68
2023/05/27 03:41:41;;;;;;;;;6.00;5.00;;;;;15.73;46.54;101832.03;4993519;28;45560;-68
2023/05/27 03:44:06;;;;;;;;;5.33;5.33;;;;;15.69;46.37;101836.00;4993918;28;45274;-67
2023/05/27 03:46:32;;;;;;;;;11.67;9.33;;;;;14.54;46.53;101645.44;4991978;28;46488;-67
2023/05/27 03:48:57;;;;;;;;;9.00;6.67;;;;;15.62;46.41;101840.31;4988368;28;45574;-69
2023/05/27 03:51:23;;;;;;;;;10.33;8.67;;;;;15.61;46.65;101839.44;4984058;28;45500;-69
2023/05/27 03:53:48;;;;;;;;;5.33;4.33;;;;;15.58;46.80;101833.50;4985652;28;45404;-70
2023/05/27 03:56:13;;;;;;;;;6.33;5.67;;;;;15.62;46.76;101845.66;4977753;28;46218;-69
2023/05/27 03:58:39;;;;;;;;;13.00;10.00;;;;;15.62;46.62;101840.31;4985194;28;45375;-67
2023/05/27 04:01:05;;;;;;;;;7.33;7.33;;;;;15.63;46.44;101832.09;4985649;28;45247;-68
2023/05/27 04:03:31;;;;;;;;;12.00;8.00;;;;;15.33;46.50;101781.47;4985234;28;45409;-68
2023/05/27 04:05:57;;;;;;;;;8.67;7.67;;;;;15.61;46.64;101835.91;4984919;28;47519;-68
2023/05/27 04:08:26;;;;;;;;;5.33;5.33;;;;;15.61;46.51;101838.59;4985448;28;45333;-67
2023/05/27 04:10:52;;;;;;;;;6.00;4.67;;;;;15.62;46.70;101843.81;4984959;28;46316;-68
2023/05/27 04:13:18;;;;;;;;;6.67;6.67;;;;;15.36;46.40;101797.22;4970743;28;45457;-66
2023/05/27 04:15:44;;;;;;;;;10.00;7.67;;;;;15.29;46.42;101786.28;4990832;28;46715;-67
2023/05/27 04:18:09;;;;;;;;;6.67;6.00;;;;;15.67;46.53;101846.06;4985090;28;45505;-66
2023/05/27 04:20:40;;;;;;;;;6.67;5.67;;;;;15.63;46.52;101837.47;4991644;28;45349;-68
2023/05/27 04:23:06;;;;;;;;;8.00;7.33;;;;;15.62;46.41;101837.63;4985413;28;45588;-69
2023/05/27 04:25:31;;;;;;;;;8.33;5.33;;;;;15.66;46.32;101849.72;4988359;28;45600;-68
2023/05/27 04:27:57;;;;;;;;;3.67;3.67;;;;;15.62;46.59;101846.50;4981170;28;45502;-67
2023/05/27 04:30:22;;;;;;;;;7.33;6.00;;;;;15.60;46.49;101847.63;4991994;28;45578;-67
2023/05/27 04:32:48;;;;;;;;;8.33;8.00;;;;;15.59;46.49;101851.28;4990423;28;45340;-68
2023/05/27 04:35:13;;;;;;;;;13.00;6.33;;;;;15.53;46.67;101842.84;4995038;28;45846;-68
2023/05/27 04:37:40;;;;;;;;;9.67;8.33;;;;;15.28;46.94;101799.81;4981034;28;45502;-68
2023/05/27 04:40:08;;;;;;;;;9.33;7.33;;;;;15.49;46.95;101832.56;4981355;28;45544;-67
2023/05/27 04:42:36;;;;;;;;;11.00;7.00;;;;;15.26;46.92;101786.59;4977660;28;45535;-66
2023/05/27 04:45:03;;;;;;;;;3.67;3.67;;;;;15.55;46.66;101840.00;4976986;28;45861;-69
2023/05/27 04:47:30;;;;;;;;;7.67;7.33;;;;;15.54;46.90;101832.97;4976338;28;46068;-68
2023/05/27 04:49:56;;;;;;;;;6.00;5.00;;;;;15.60;46.54;101840.41;4982609;28;45457;-66
2023/05/27 04:52:23;;;;;;;;;6.67;4.67;;;;;15.58;46.17;101817.41;4984223;28;45598;-68
2023/05/27 04:54:48;;;;;;;;;10.33;5.33;;;;;15.57;46.78;101821.09;4988608;28;46481;-66
2023/05/27 04:57:18;;;;;;;;;9.33;6.67;;;;;15.65;46.66;101834.63;4987547;28;45500;-69
2023/05/27 04:59:58;;;;;;;;;8.00;5.67;;;;;15.62;46.38;101813.50;4980308;28;45436;-69
2023/05/27 05:02:25;;;;;;;;;12.00;9.00;;;;;15.79;46.30;101832.25;4979647;28;45380;-68
2023/05/27 05:04:50;;;;;;;;;10.00;9.00;;;;;15.62;45.94;101817.03;4987494;28;45582;-67
2023/05/27 05:07:16;;;;;;;;;10.33;7.33;;;;;15.75;46.21;101835.41;4970923;28;45909;-67
2023/05/27 05:09:42;;;;;;;;;6.33;4.67;;;;;15.79;46.42;101832.25;4966830;28;45484;-68
2023/05/27 05:12:07;;;;;;;;;6.00;6.00;;;;;15.25;46.24;101736.66;4982071;28;45342;-68
2023/05/27 05:14:33;;;;;;;;;9.00;7.00;;;;;15.87;46.02;101838.72;4994883;28;45567;-69
2023/05/27 05:16:58;;;;;;;;;8.67;8.00;;;;;15.90;45.88;101839.25;4979830;28;45461;-68
2023/05/27 05:19:23;;;;;;;;;5.00;5.00;;;;;15.92;46.12;101845.31;4995069;28;45416;-67
2023/05/27 05:21:49;;;;;;;;;6.67;6.67;;;;;15.90;45.95;101833.91;4977290;28;45348;-67
2023/05/27 05:24:14;;;;;;;;;13.67;9.00;;;;;15.98;45.92;101842.00;4981943;28;46783;-68
2023/05/27 05:26:40;;;;;;;;;10.33;6.67;;;;;15.87;45.92;101810.06;4969257;28;45307;-67
2023/05/27 05:29:05;;;;;;;;;9.33;6.00;;;;;15.61;45.88;101763.53;4977039;28;45413;-69
2023/05/27 05:31:30;;;;;;;;;7.33;7.33;;;;;15.98;45.55;101825.91;4987238;28;45371;-68
2023/05/27 05:33:56;;;;;;;;;9.33;8.33;;;;;16.13;45.70;101851.22;4989412;28;46944;-70
2023/05/27 05:36:21;;;;;;;;;7.33;5.00;;;;;16.09;45.67;101847.16;4998916;28;45389;-67
2023/05/27 05:38:47;;;;;;;;;5.00;5.00;;;;;16.07;45.72;101851.00;4991194;28;45325;-69
2023/05/27 05:41:12;;;;;;;;;7.33;7.33;;;;;15.92;45.90;101845.31;4987488;28;45452;-67
2023/05/27 05:43:37;;;;;;;;;10.00;9.00;;;;;15.47;46.43;101779.13;4986959;28;46304;-68
2023/05/27 05:46:03;;;;;;;;;8.33;5.67;;;;;15.84;46.30;101829.16;4995521;28;45574;-68
2023/05/27 05:48:28;;;;;;;;;9.67;7.67;;;;;16.00;46.05;101837.34;4992779;28;45425;-69
2023/05/27 05:50:54;;;;;;;;;9.33;8.33;;;;;15.62;46.24;101767.94;4962942;28;45295;-68
2023/05/27 05:53:19;;;;;;;;;15.33;10.67;;;;;16.03;46.14;101852.31;4979525;28;45675;-69
2023/05/27 05:55:45;;;;;;;;;10.00;8.33;;;;;16.04;46.37;101849.47;4973914;28;45324;-68
2023/05/27 05:58:10;;;;;;;;;8.00;6.00;;;;;16.25;46.24;101848.31;4973802;28;45524;-69
2023/05/27 06:00:35;;;;;;;;;9.00;8.33;;;;;16.67;45.38;101844.00;4978315;28;45440;-67
2023/05/27 06:03:01;;;;;;;;;10.67;7.67;;;;;17.00;44.52;101838.81;4986645;28;45713;-69
2023/05/27 06:05:27;;;;;;;;;10.67;10.00;;;;;17.45;43.55;101848.47;4977855;28;46367;-69
2023/05/27 06:07:53;;;;;;;;;8.67;6.67;;;;;17.60;42.92;101776.91;4984857;28;45361;-70
2023/05/27 06:10:19;;;;;;;;;9.33;5.33;;;;;18.43;42.13;101830.69;4965465;28;45376;-67
2023/05/27 06:12:44;;;;;;;;;7.00;7.00;;;;;19.08;41.22;101844.91;4984865;28;46292;-67
2023/05/27 06:15:10;;;;;;;;;9.00;5.67;;;;;19.55;39.70;101838.69;4993987;28;45432;-67
2023/05/27 06:17:35;;;;;;;;;9.67;8.00;;;;;19.95;38.88;101821.41;4986043;28;45462;-69
2023/05/27 06:20:01;;;;;;;;;10.00;7.33;;;;;20.47;38.02;101836.91;4970374;28;45323;-68
2023/05/27 06:22:26;;;;;;;;;12.67;9.33;;;;;20.79;37.14;101835.75;4965991;28;47572;-67
2023/05/27 06:24:51;;;;;;;;;6.33;6.33;;;;;21.05;36.90;101818.25;4994129;28;45397;-66
2023/05/27 06:27:17;;;;;;;;;8.00;7.00;;;;;21.48;36.22;101836.34;4985209;28;45416;-69
2023/05/27 06:29:44;;;;;;;;;10.00;7.00;;;;;21.90;35.26;101829.31;4990247;28;45547;-68
2023/05/27 06:32:09;;;;;;;;;7.00;7.00;;;;;22.22;34.49;101838.00;4989472;28;46633;-67
2023/05/27 06:34:35;;;;;;;;;7.00;5.33;;;;;22.50;33.57;101838.06;4993292;28;45528;-68
2023/05/27 06:37:00;;;;;;;;;7.33;7.33;;;;;22.85;33.40;101844.41;4977719;28;45345;-70
2023/05/27 06:39:25;;;;;;;;;8.00;6.33;;;;;23.10;33.29;101842.88;4985066;28;45467;-68
2023/05/27 06:41:51;;;;;;;;;10.67;9.00;;;;;23.38;32.56;101829.25;4960254;28;45697;-70
2023/05/27 06:44:16;;;;;;;;;8.00;7.00;;;;;23.38;31.92;101829.25;4960991;28;45620;-67
2023/05/27 06:46:41;;;;;;;;;8.33;6.00;;;;;23.55;32.02;101835.16;4978924;28;45530;-70
2023/05/27 06:49:07;;;;;;;;;10.00;5.67;;;;;23.81;32.02;101829.84;4979165;28;45596;-67
2023/05/27 06:51:32;;;;;;;;;8.00;8.00;;;;;23.98;30.88;101808.56;4981798;28;48285;-70
2023/05/27 06:53:57;;;;;;;;;10.00;8.33;;;;;23.90;30.94;101768.88;4967699;28;45888;-70
2023/05/27 06:56:23;;;;;;;;;8.33;6.00;;;;;24.58;31.14;101820.34;4983829;28;45794;-69
2023/05/27 06:58:48;;;;;;;;;7.33;6.00;;;;;24.77;30.21;101821.38;4989935;28;45516;-69
2023/05/27 07:01:14;;;;;;;;;9.00;7.67;;;;;24.95;30.09;101826.97;4989033;28;46365;-68
2023/05/27 07:03:41;;;;;;;;;8.33;7.00;;;;;24.98;29.57;101832.00;4981537;28;45535;-68
2023/05/27 07:06:06;;;;;;;;;10.00;7.33;;;;;24.82;29.96;101816.13;4978130;28;45513;-69
2023/05/27 07:08:31;;;;;;;;;8.00;8.00;;;;;25.17;29.61;101825.69;4984486;28;45667;-69
2023/05/27 07:10:57;;;;;;;;;8.33;7.67;;;;;25.48;29.39;101816.78;4977291;28;46207;-70
2023/05/27 07:13:22;;;;;;;;;8.67;7.33;;;;;25.69;29.08;101804.78;4978466;28;45690;-70
2023/05/27 07:15:48;;;;;;;;;12.67;9.67;;;;;25.97;28.25;101804.38;4985413;28;45495;-68
2023/05/27 07:18:13;;;;;;;;;11.67;9.33;;;;;26.10;28.05;101814.38;4975909;28;45638;-70
2023/05/27 07:20:39;;;;;;;;;8.67;8.00;;;;;26.13;28.27;101794.00;4983875;28;45955;-69
2023/05/27 07:23:04;;;;;;;;;6.67;6.67;;;;;26.11;28.11;101793.38;4977570;28;45596;-70
2023/05/27 07:25:30;;;;;;;;;7.67;7.00;;;;;26.12;28.08;101795.91;4958808;28;45292;-70
2023/05/27 07:27:55;;;;;;;;;8.00;7.00;;;;;26.05;28.38;101784.22;4985856;28;45571;-71
2023/05/27 07:30:20;;;;;;;;;8.00;5.67;;;;;26.21;28.33;101778.19;4976764;28;48611;-74
2023/05/27 07:32:46;;;;;;;;;12.33;10.33;;;;;26.58;27.91;101761.94;4966440;28;45660;-73
2023/05/27 07:35:11;;;;;;;;;6.00;3.00;;;;;26.96;27.15;101787.13;4960639;28;45472;-72
2023/05/27 07:37:37;;;;;;;;;11.67;9.67;;;;;27.38;27.25;101768.19;4977723;28;46641;-70
2023/05/27 07:40:03;;;;;;;;;7.00;7.00;;;;;27.86;26.33;101775.53;4992199;28;46527;-70
2023/05/27 07:42:29;;;;;;;;;8.67;8.67;;;;;28.31;25.74;101773.13;4979079;28;47032;-71
2023/05/27 07:44:55;;;;;;;;;9.33;7.67;;;;;28.50;25.14;101765.63;4982132;28;45476;-70
2023/05/27 07:47:20;;;;;;;;;5.00;5.00;;;;;28.66;25.24;101770.41;4983771;28;45520;-71
2023/05/27 07:49:46;;;;;;;;;7.33;5.00;;;;;28.76;24.54;101781.56;4984101;28;46617;-69
2023/05/27 07:52:11;;;;;;;;;7.00;6.00;;;;;28.87;24.64;101779.09;4982897;28;45318;-70
2023/05/27 07:54:36;;;;;;;;;8.33;6.00;;;;;28.99;24.87;101775.22;4969083;28;48492;-69
2023/05/27 07:57:02;;;;;;;;;10.00;8.33;;;;;29.02;23.92;101768.44;4985593;28;45491;-70
2023/05/27 07:59:29;;;;;;;;;8.33;8.33;;;;;28.52;24.77;101752.56;4984195;28;45519;-70
2023/05/27 08:01:54;;;;;;;;;9.00;8.00;;;;;28.52;24.73;101774.44;4985545;28;45278;-68
2023/05/27 08:04:19;;;;;;;;;8.00;7.00;;;;;28.56;25.28;101770.16;4987594;28;45233;-70
2023/05/27 08:06:45;;;;;;;;;7.33;7.00;;;;;28.74;24.81;101780.13;4966197;28;45293;-68
2023/05/27 08:09:10;;;;;;;;;8.00;6.33;;;;;28.66;24.51;101780.50;4959344;28;46259;-70
2023/05/27 08:11:36;;;;;;;;;7.00;6.33;;;;;28.32;24.87;101725.56;4974830;28;45289;-69
2023/05/27 08:14:01;;;;;;;;;8.00;6.00;;;;;28.49;25.53;101761.25;4980708;28;60657;-70
2023/05/27 08:16:26;;;;;;;;;8.00;6.00;;;;;28.68;24.46;101764.69;4989469;28;45263;-69
2023/05/27 08:18:52;;;;;;;;;7.00;6.33;;;;;28.65;24.75;101763.25;4966835;28;47724;-72
2023/05/27 08:21:17;;;;;;;;;8.33;8.33;;;;;28.35;25.35;101754.34;4971530;28;45203;-69
2023/05/27 08:23:43;;;;;;;;;8.00;6.33;;;;;28.49;25.55;101736.63;4984428;28;45614;-72
2023/05/27 08:26:09;;;;;;;;;7.00;7.00;;;;;28.86;24.93;101758.25;4981820;28;45481;-69
2023/05/27 08:28:36;;;;;;;;;7.67;7.67;;;;;29.14;24.86;101754.72;4981762;28;46617;-71
2023/05/27 08:31:03;;;;;;;;;7.00;7.00;;;;;29.32;24.53;101744.41;4980709;28;45428;-69
2023/05/27 08:33:29;;;;;;;;;10.00;8.33;;;;;29.24;24.81;101739.34;4968962;28;45523;-69
2023/05/27 08:35:55;;;;;;;;;10.33;8.67;;;;;29.49;24.69;101739.03;4980545;28;45561;-77
2023/05/27 08:38:21;;;;;;;;;12.00;8.33;;;;;29.74;24.23;101730.41;4996635;28;45579;-70
2023/05/27 08:40:47;;;;;;;;;5.67;5.67;;;;;29.53;23.77;101742.94;4969425;28;45533;-68
2023/05/27 08:43:13;;;;;;;;;9.33;8.00;;;;;29.33;24.44;101743.34;4987980;28;46870;-70
2023/05/27 08:45:40;;;;;;;;;8.00;8.00;;;;;28.85;24.63;101685.41;4970402;28;45601;-70
2023/05/27 08:48:08;;;;;;;;;10.67;8.00;;;;;29.08;24.46;101729.16;4969147;28;45183;-70
2023/05/27 08:50:34;;;;;;;;;12.00;9.67;;;;;28.92;25.13;101718.97;4967158;28;45556;-70
2023/05/27 08:53:02;;;;;;;;;5.33;4.33;;;;;28.78;25.13;101715.63;4962528;28;45517;-68
2023/05/27 08:55:29;;;;;;;;;6.00;6.00;;;;;28.66;25.13;101663.66;4990592;28;45542;-70
2023/05/27 08:57:56;;;;;;;;;7.67;6.67;;;;;29.62;24.34;101722.25;4976720;28;46253;-69
2023/05/27 09:00:22;;;;;;;;;7.67;7.67;;;;;29.59;23.74;101648.75;4971196;28;45405;-71
2023/05/27 09:02:47;;;;;;;;;14.00;8.00;;;;;30.23;23.60;101715.06;4959478;28;45442;-70
2023/05/27 09:05:14;;;;;;;;;10.00;7.00;;;;;30.25;23.69;101721.16;4967476;28;45437;-70
2023/05/27 09:07:40;;;;;;;;;10.00;7.33;;;;;30.63;23.02;101707.69;4992007;28;46619;-70
2023/05/27 09:10:07;;;;;;;;;7.33;7.00;;;;;30.99;23.20;101701.56;4991185;28;45491;-74
2023/05/27 09:12:33;;;;;;;;;6.33;6.33;;;;;31.61;22.66;101703.88;4987822;28;45306;-69
2023/05/27 09:14:58;;;;;;;;;7.33;7.33;;;;;31.93;22.47;101657.16;4986066;28;45395;-69
2023/05/27 09:17:24;;;;;;;;;10.00;6.00;;;;;32.86;20.90;101698.72;4981081;28;46486;-69
2023/05/27 09:19:51;;;;;;;;;9.00;8.00;;;;;33.12;21.25;101677.59;4987527;28;45498;-69
2023/05/27 09:22:24;;;;;;;;;9.67;9.33;;;;;34.11;20.06;101703.88;4993744;28;45386;-68
2023/05/27 09:24:53;;;;;;;;;7.67;6.67;;;;;34.36;19.72;101710.47;4992276;28;45507;-70
2023/05/27 09:27:19;;;;;;;;;9.67;8.33;;;;;34.58;19.63;101701.84;4972216;28;46571;-69
2023/05/27 09:29:44;;;;;;;;;10.00;9.00;;;;;34.30;19.67;101657.19;4994290;28;45519;-69
2023/05/27 09:32:10;;;;;;;;;10.67;8.33;;;;;35.00;19.73;101688.41;4989251;28;45530;-68
2023/05/27 09:34:39;;;;;;;;;8.33;7.33;;;;;35.54;18.76;101683.94;4985180;28;45235;-68
2023/05/27 09:37:04;;;;;;;;;9.00;6.00;;;;;35.69;17.89;101628.50;4996755;28;45820;-68
2023/05/27 09:39:34;;;;;;;;;10.67;10.33;;;;;36.54;18.32;101675.78;4982610;28;45384;-68
2023/05/27 09:42:01;;;;;;;;;10.00;9.00;;;;;36.85;17.57;101669.88;4979792;28;45278;-68
2023/05/27 09:44:36;;;;;;;;;8.67;7.67;;;;;37.24;17.80;101664.00;4979979;28;45493;-69
2023/05/27 09:47:04;;;;;;;;;9.00;7.00;;;;;37.39;17.18;101654.66;4978380;28;46736;-68
2023/05/27 09:49:32;;;;;;;;;6.67;6.33;;;;;36.72;17.15;101662.25;4965319;28;45557;-68
2023/05/27 09:52:00;;;;;;;;;8.67;7.67;;;;;36.52;17.97;101655.03;4989840;28;45360;-71
2023/05/27 09:54:25;;;;;;;;;10.33;10.33;;;;;36.41;17.78;101651.56;4989971;28;45500;-68
2023/05/27 09:56:52;;;;;;;;;7.67;7.67;;;;;36.07;18.28;101659.16;4983644;28;45290;-68
2023/05/27 09:59:17;;;;;;;;;15.33;10.00;;;;;35.51;18.40;101666.00;4982067;28;45221;-69
2023/05/27 10:01:45;;;;;;;;;7.33;7.33;;;;;34.99;19.21;101658.31;4997890;28;45463;-69
2023/05/27 10:04:15;;;;;;;;;9.67;8.00;;;;;34.35;19.89;101659.13;4984365;28;45613;-69
2023/05/27 10:06:40;;;;;;;;;10.00;10.00;;;;;33.62;20.53;101650.38;4975190;28;46912;-69
2023/05/27 10:09:06;;;;;;;;;9.67;8.00;;;;;32.34;21.07;101581.19;4976137;28;45287;-69
2023/05/27 10:11:38;;;;;;;;;12.67;8.33;;;;;30.92;22.45;101477.69;4970997;28;45283;-69
2023/05/27 10:14:05;;;;;;;;;8.33;6.33;;;;;30.79;23.51;101621.69;4994643;28;45239;-71
2023/05/27 10:16:31;;;;;;;;;9.00;8.00;;;;;29.97;24.53;101648.00;4981778;28;46552;-69
2023/05/27 10:18:57;;;;;;;;;8.33;8.33;;;;;29.30;24.91;101656.19;4976036;28;45977;-67
2023/05/27 10:21:27;;;;;;;;;11.67;8.00;;;;;28.39;26.52;101641.47;4974440;28;45505;-69
2023/05/27 10:23:57;;;;;;;;;10.67;7.33;;;;;27.34;27.50;101573.09;4978956;28;45399;-71
2023/05/27 10:26:33;;;;;;;;;11.00;10.00;;;;;27.34;27.90;101633.16;4985828;28;46258;-70
2023/05/27 10:29:08;;;;;;;;;9.67;9.00;;;;;27.10;28.75;101640.47;4976741;28;45561;-69
2023/05/27 10:31:45;;;;;;;;;9.33;8.33;;;;;26.26;29.73;101584.00;4970623;28;45520;-71
2023/05/27 10:34:20;;;;;;;;;8.67;8.67;;;;;26.12;30.51;101632.34;4968908;28;45660;-71
2023/05/27 10:36:46;;;;;;;;;6.67;6.67;;;;;25.70;30.58;101625.84;4985720;28;48129;-71
2023/05/27 10:39:17;;;;;;;;;9.67;8.67;;;;;25.52;31.52;101637.47;4975162;28;45405;-70
2023/05/27 10:41:50;;;;;;;;;9.00;7.00;;;;;25.10;32.14;101623.53;4985755;28;45303;-70
2023/05/27 10:44:31;;;;;;;;;8.33;8.00;;;;;24.79;32.20;101615.28;4977317;28;45633;-70
2023/05/27 10:47:04;;;;;;;;;8.00;8.00;;;;;24.39;33.00;101604.56;4991181;28;46616;-70
2023/05/27 10:49:38;;;;;;;;;10.00;9.00;;;;;24.31;33.65;101590.41;4962507;28;45455;-73
2023/05/27 10:52:15;;;;;;;;;10.00;9.00;;;;;24.30;33.58;101603.16;4975817;28;45539;-70
2023/05/27 10:54:48;;;;;;;;;9.00;8.67;;;;;24.38;33.54;101619.22;4982684;28;45989;-73
2023/05/27 10:57:14;;;;;;;;;11.00;9.33;;;;;24.29;33.55;101609.63;4960037;28;49337;-72
2023/05/27 10:59:50;;;;;;;;;10.50;8.00;;;;;24.16;34.39;101615.06;4989742;28;45494;-70
2023/05/27 11:02:17;;;;;;;;;8.33;8.00;;;;;24.13;34.69;101600.03;4985132;28;45576;-69
2023/05/27 11:04:42;;;;;;;;;14.00;10.00;;;;;24.06;34.33;101595.66;4993837;28;45518;-72
2023/05/27 11:07:07;;;;;;;;;8.33;7.33;;;;;23.60;35.03;101544.94;4960125;28;47592;-77
2023/05/27 11:09:50;;;;;;;;;10.33;8.67;;;;;23.87;35.25;101590.03;4977700;28;45612;-69
2023/05/27 11:12:21;;;;;;;;;8.67;7.00;;;;;23.59;35.11;101537.84;4973000;28;45475;-69
2023/05/27 11:14:50;;;;;;;;;16.67;15.00;;;;;23.61;35.55;101541.19;4981616;28;45560;-76
2023/05/27 11:17:15;;;;;;;;;12.33;12.33;;;;;23.80;35.28;101574.78;4981865;28;46341;-71
2023/05/27 11:19:42;;;;;;;;;15.00;11.67;;;;;23.40;35.01;101519.66;4962706;28;45542;-70